Time;durP1;ratioP1;P1;durP2;ratioP2;P2;SDS_P1;SDS_P2;PMS_P1;PMS_P2;Temp;Humidity;BMP_temperature;BMP_pressure;BME280_temperature;BME280_humidity;BME280_pressure;Samples;Min_cycle;Max_cycle;Signal;HPM_P1;HPM_P2
2022/08/04 00:01:27;;;;;;;1.70;1.40;;;28.70;53.10;;;;;;4941578;29;20361;-79
2022/08/04 00:04:09;;;;;;;1.77;1.30;;;28.60;53.00;;;;;;4957960;29;20037;-80
2022/08/04 00:06:47;;;;;;;2.67;1.35;;;28.60;53.10;;;;;;4958376;29;20062;-79
2022/08/04 00:09:21;;;;;;;3.15;1.48;;;28.60;53.10;;;;;;4940130;29;20037;-84
2022/08/04 00:11:49;;;;;;;1.63;1.30;;;28.50;53.10;;;;;;4940143;28;20060;-78
2022/08/04 00:14:18;;;;;;;1.85;1.30;;;28.50;53.10;;;;;;4940675;29;20105;-80
2022/08/04 00:16:48;;;;;;;1.83;1.25;;;28.50;53.20;;;;;;4941322;29;20039;-81
2022/08/04 00:19:25;;;;;;;1.50;1.30;;;28.40;53.20;;;;;;4940336;29;20061;-80
2022/08/04 00:22:05;;;;;;;1.63;1.20;;;28.40;53.20;;;;;;4957947;29;20043;-81
2022/08/04 00:24:32;;;;;;;1.95;1.40;;;28.40;53.20;;;;;;4940594;29;20090;-79
2022/08/04 00:26:59;;;;;;;2.05;1.30;;;28.30;53.20;;;;;;4940256;29;20054;-82
2022/08/04 00:29:26;;;;;;;1.95;1.20;;;28.30;53.30;;;;;;4940903;29;20091;-79
2022/08/04 00:31:53;;;;;;;2.00;1.27;;;28.30;53.30;;;;;;4924634;29;20110;-81
2022/08/04 00:34:19;;;;;;;1.63;1.35;;;28.30;53.40;;;;;;4925117;29;20376;-80
2022/08/04 00:36:45;;;;;;;1.38;1.27;;;28.20;53.40;;;;;;4940160;29;20037;-79
2022/08/04 00:39:13;;;;;;;1.85;1.30;;;28.20;53.40;;;;;;4924201;29;20035;-82
2022/08/04 00:42:00;;;;;;;2.42;1.30;;;28.20;53.40;;;;;;4924256;29;20066;-80
2022/08/04 00:44:41;;;;;;;1.52;1.27;;;28.20;53.50;;;;;;4940064;29;20041;-80
2022/08/04 00:47:26;;;;;;;1.95;1.40;;;28.10;53.50;;;;;;4939877;29;20027;-79
2022/08/04 00:49:54;;;;;;;;;;;28.10;53.60;;;;;;4924250;29;20055;-80
2022/08/04 00:52:44;;;;;;;1.42;1.17;;;28.10;53.40;;;;;;4956864;29;19913;-81
2022/08/04 00:55:57;;;;;;;2.13;1.52;;;28.00;53.60;;;;;;4939800;29;20046;-80
2022/08/04 00:58:35;;;;;;;1.30;1.13;;;27.90;53.60;;;;;;4940156;29;20034;-80
2022/08/04 01:01:10;;;;;;;1.42;1.30;;;27.90;53.60;;;;;;4956710;29;20141;-82
2022/08/04 01:03:47;;;;;;;3.85;1.48;;;27.90;53.70;;;;;;4940176;29;20468;-80
2022/08/04 01:06:27;;;;;;;1.88;1.35;;;27.90;53.70;;;;;;4956506;29;20556;-80
2022/08/04 01:09:34;;;;;;;1.65;1.42;;;27.90;53.80;;;;;;4956789;29;20483;-79
2022/08/04 01:12:18;;;;;;;1.45;1.20;;;27.80;53.80;;;;;;4939194;28;20062;-80
2022/08/04 01:14:55;;;;;;;2.33;1.40;;;27.80;53.80;;;;;;4939647;29;20034;-79
2022/08/04 01:17:27;;;;;;;1.73;1.30;;;27.80;53.80;;;;;;4939231;29;20126;-80
2022/08/04 01:20:02;;;;;;;2.13;1.33;;;27.70;53.80;;;;;;4939505;29;20498;-81
2022/08/04 01:22:31;;;;;;;3.40;1.70;;;27.70;53.90;;;;;;4957435;29;20046;-80
2022/08/04 01:25:13;;;;;;;1.92;1.48;;;27.70;53.90;;;;;;4939783;29;20023;-79
2022/08/04 01:28:01;;;;;;;1.48;1.10;;;27.70;54.00;;;;;;4939751;29;20036;-79
2022/08/04 01:30:29;;;;;;;2.25;1.40;;;27.60;53.90;;;;;;4939625;29;20073;-80
2022/08/04 01:33:02;;;;;;;2.05;1.50;;;27.60;53.90;;;;;;4957214;29;20106;-80
2022/08/04 01:35:35;;;;;;;2.70;1.50;;;27.50;54.00;;;;;;4930638;29;20051;-83
2022/08/04 01:38:23;;;;;;;1.73;1.58;;;27.50;54.00;;;;;;4947929;29;20106;-87
2022/08/04 01:40:55;;;;;;;1.42;1.23;;;27.50;54.10;;;;;;4939277;29;20035;-80
2022/08/04 01:43:22;;;;;;;1.73;1.33;;;27.50;54.00;;;;;;4939394;29;20125;-81
2022/08/04 01:45:50;;;;;;;3.22;1.42;;;27.50;54.10;;;;;;4938975;29;20058;-81
2022/08/04 01:48:21;;;;;;;2.28;1.50;;;27.40;54.10;;;;;;4956374;29;20039;-82
2022/08/04 01:50:49;;;;;;;1.73;1.35;;;27.40;54.10;;;;;;4956436;29;20045;-82
2022/08/04 01:53:15;;;;;;;2.05;1.50;;;27.30;54.00;;;;;;4923758;29;20432;-80
2022/08/04 01:55:41;;;;;;;1.77;1.40;;;27.30;54.10;;;;;;4938909;29;20031;-81
2022/08/04 01:58:08;;;;;;;1.88;1.40;;;27.30;54.10;;;;;;4938416;29;20035;-79
2022/08/04 02:00:37;;;;;;;2.00;1.55;;;27.30;54.20;;;;;;4956062;29;20038;-79
2022/08/04 02:03:02;;;;;;;1.52;1.30;;;27.20;54.10;;;;;;4955458;28;20034;-87
2022/08/04 02:05:28;;;;;;;1.55;1.33;;;27.20;54.10;;;;;;4923239;29;20047;-80
2022/08/04 02:08:06;;;;;;;2.75;1.50;;;27.20;54.20;;;;;;4938633;29;20527;-80
2022/08/04 02:10:41;;;;;;;1.33;1.20;;;27.20;54.30;;;;;;4939069;29;20125;-80
2022/08/04 02:13:32;;;;;;;2.42;1.40;;;27.20;54.30;;;;;;4938282;29;20054;-82
2022/08/04 02:16:02;;;;;;;1.77;1.45;;;27.20;54.30;;;;;;4955460;29;20027;-79
2022/08/04 02:18:50;;;;;;;2.03;1.45;;;27.10;54.30;;;;;;4955385;29;20039;-79
2022/08/04 02:21:19;;;;;;;3.25;1.30;;;27.10;54.40;;;;;;4938546;29;20050;-81
2022/08/04 02:23:49;;;;;;;1.38;1.27;;;27.10;54.30;;;;;;4938320;29;20051;-80
2022/08/04 02:26:19;;;;;;;1.75;1.30;;;27.00;54.40;;;;;;4955783;29;20065;-79
2022/08/04 02:29:12;;;;;;;1.30;1.20;;;27.00;54.40;;;;;;4955321;29;20082;-80
2022/08/04 02:31:55;;;;;;;2.03;1.40;;;27.00;54.50;;;;;;4938296;29;20039;-80
2022/08/04 02:34:41;;;;;;;1.70;1.42;;;27.00;54.50;;;;;;4955757;29;20028;-80
2022/08/04 02:37:08;;;;;;;1.77;1.38;;;26.90;54.50;;;;;;4954545;29;20188;-81
2022/08/04 02:39:36;;;;;;;2.95;1.52;;;26.90;54.50;;;;;;4922018;29;20034;-82
2022/08/04 02:42:05;;;;;;;1.75;1.30;;;26.90;54.50;;;;;;4938177;29;20152;-80
2022/08/04 02:44:31;;;;;;;2.50;1.60;;;26.90;54.60;;;;;;4955046;29;20123;-83
2022/08/04 02:47:00;;;;;;;1.27;1.13;;;26.80;54.50;;;;;;4955087;29;20527;-83
2022/08/04 02:49:27;;;;;;;2.20;1.60;;;26.80;54.60;;;;;;4955565;29;20031;-80
2022/08/04 02:51:55;;;;;;;2.40;1.45;;;26.80;54.60;;;;;;4954988;29;20066;-79
2022/08/04 02:54:24;;;;;;;1.88;1.35;;;26.80;54.60;;;;;;4923242;29;20038;-79
2022/08/04 02:56:54;;;;;;;3.22;1.50;;;26.70;54.60;;;;;;4922564;29;20027;-82
2022/08/04 02:59:25;;;;;;;1.45;1.35;;;26.70;54.60;;;;;;4938268;29;20028;-79
2022/08/04 03:01:55;;;;;;;2.50;1.60;;;26.70;54.60;;;;;;4938302;29;20036;-79
2022/08/04 03:04:39;;;;;;;3.63;1.70;;;26.70;54.70;;;;;;4922385;29;20030;-79
2022/08/04 03:07:39;;;;;;;1.60;1.30;;;26.70;54.80;;;;;;4938530;29;20031;-79
2022/08/04 03:10:29;;;;;;;2.30;1.40;;;26.60;54.70;;;;;;4955077;29;20513;-79
2022/08/04 03:13:32;;;;;;;1.92;1.40;;;26.60;54.70;;;;;;4918945;29;20059;-79
2022/08/04 03:16:26;;;;;;;2.70;1.55;;;26.50;54.80;;;;;;4939885;29;20035;-79
2022/08/04 03:19:49;;;;;;;1.70;1.27;;;26.50;54.80;;;;;;4940067;29;20166;-79
2022/08/04 03:22:14;;;;;;;1.73;1.10;;;26.50;54.90;;;;;;4899698;29;20512;-81
2022/08/04 03:25:17;;;;;;;2.70;1.63;;;26.50;54.70;;;;;;4899727;29;20033;-80
2022/08/04 03:27:55;;;;;;;2.00;1.30;;;26.40;54.90;;;;;;4915897;29;20043;-79
2022/08/04 03:30:35;;;;;;;2.17;1.45;;;26.40;54.90;;;;;;4938699;29;20036;-81
2022/08/04 03:33:00;;;;;;;2.15;1.40;;;26.40;54.90;;;;;;4938487;29;20024;-79
2022/08/04 03:35:48;;;;;;;2.10;1.50;;;26.40;54.90;;;;;;4939335;29;20075;-80
2022/08/04 03:38:50;;;;;;;1.40;1.20;;;26.30;55.00;;;;;;4937914;29;20471;-79
2022/08/04 03:41:35;;;;;;;2.38;1.58;;;26.30;55.00;;;;;;4937996;29;20032;-80
2022/08/04 03:44:31;;;;;;;2.17;1.45;;;26.30;55.00;;;;;;4938921;29;20083;-82
2022/08/04 03:47:19;;;;;;;2.10;1.30;;;26.30;55.10;;;;;;4938379;29;20027;-81
2022/08/04 03:50:06;;;;;;;1.80;1.33;;;26.20;55.00;;;;;;4937627;29;20094;-81
2022/08/04 03:53:11;;;;;;;1.73;1.60;;;26.20;55.00;;;;;;4938462;29;20438;-79
2022/08/04 03:56:10;;;;;;;2.85;1.40;;;26.20;55.10;;;;;;4941887;29;20023;-80
2022/08/04 03:58:44;;;;;;;2.58;1.63;;;26.10;55.10;;;;;;4943110;29;20031;-79
2022/08/04 04:01:19;;;;;;;3.50;1.40;;;26.10;55.00;;;;;;4940135;29;20449;-82
2022/08/04 04:04:02;;;;;;;1.60;1.20;;;26.10;55.10;;;;;;4937843;29;20042;-83
2022/08/04 04:07:03;;;;;;;2.10;1.40;;;26.10;55.10;;;;;;4937313;29;20040;-80
2022/08/04 04:10:02;;;;;;;1.33;1.15;;;26.10;55.20;;;;;;4898531;29;20078;-85
2022/08/04 04:12:56;;;;;;;2.88;1.45;;;26.00;55.20;;;;;;4944162;29;20527;-83
2022/08/04 04:15:24;;;;;;;1.60;1.27;;;26.00;55.30;;;;;;4941223;29;20035;-83
2022/08/04 04:18:25;;;;;;;1.77;1.40;;;26.00;55.20;;;;;;4940645;29;20027;-83
2022/08/04 04:21:08;;;;;;;2.38;1.42;;;26.00;55.40;;;;;;4924863;29;20043;-83
2022/08/04 04:23:52;;;;;;;2.17;1.25;;;25.90;55.30;;;;;;4957805;29;20031;-83
2022/08/04 04:26:17;;;;;;;3.10;1.50;;;25.90;55.30;;;;;;4957837;28;20033;-82
2022/08/04 04:29:02;;;;;;;1.95;1.30;;;25.90;55.30;;;;;;4957582;29;20027;-83
2022/08/04 04:32:06;;;;;;;2.28;1.63;;;25.90;55.30;;;;;;4925562;29;20043;-82
2022/08/04 04:34:47;;;;;;;2.67;1.50;;;25.90;55.40;;;;;;4957468;29;20028;-83
2022/08/04 04:37:20;;;;;;;3.15;1.40;;;25.80;55.40;;;;;;4957827;29;20035;-81
2022/08/04 04:40:09;;;;;;;1.20;1.10;;;25.80;55.40;;;;;;4957364;29;20031;-83
2022/08/04 04:43:03;;;;;;;1.70;1.20;;;25.80;55.50;;;;;;4940678;29;20047;-83
2022/08/04 04:45:32;;;;;;;2.63;1.33;;;25.70;55.40;;;;;;4940379;29;20540;-82
2022/08/04 04:48:11;;;;;;;2.05;1.50;;;25.70;55.40;;;;;;4940448;29;20170;-83
2022/08/04 04:51:02;;;;;;;2.38;1.30;;;25.70;55.50;;;;;;4958120;29;20031;-83
2022/08/04 04:54:05;;;;;;;1.55;1.30;;;25.70;55.50;;;;;;4957561;29;20035;-82
2022/08/04 04:56:47;;;;;;;2.75;1.35;;;25.60;55.50;;;;;;4940529;29;20111;-83
2022/08/04 04:59:17;;;;;;;1.60;1.38;;;25.70;55.60;;;;;;4957460;29;20035;-83
2022/08/04 05:01:49;;;;;;;2.03;1.50;;;25.60;55.50;;;;;;4940350;29;20462;-83
2022/08/04 05:04:47;;;;;;;2.28;1.30;;;25.60;55.60;;;;;;4956828;29;20031;-83
2022/08/04 05:07:35;;;;;;;1.50;1.30;;;25.60;55.70;;;;;;4940118;29;20114;-82
2022/08/04 05:10:17;;;;;;;1.75;1.30;;;25.60;55.70;;;;;;4939752;29;20037;-84
2022/08/04 05:13:09;;;;;;;1.40;1.20;;;25.60;55.70;;;;;;4957110;28;20055;-82
2022/08/04 05:15:38;;;;;;;1.77;1.30;;;25.60;55.80;;;;;;4939676;29;20066;-84
2022/08/04 05:18:08;;;;;;;2.40;1.30;;;25.50;55.60;;;;;;4939660;29;20095;-80
2022/08/04 05:20:41;;;;;;;1.75;1.50;;;25.50;55.70;;;;;;4956186;29;20051;-80
2022/08/04 05:23:14;;;;;;;1.70;1.30;;;25.50;55.70;;;;;;4939617;29;20053;-79
2022/08/04 05:25:54;;;;;;;1.33;1.20;;;25.50;55.80;;;;;;4923756;29;20122;-82
2022/08/04 05:28:44;;;;;;;1.83;1.35;;;25.50;55.80;;;;;;4939484;29;20039;-84
2022/08/04 05:31:14;;;;;;;2.42;1.50;;;25.50;55.90;;;;;;4939565;29;20049;-82
2022/08/04 05:33:48;;;;;;;2.65;1.40;;;25.50;55.80;;;;;;4938923;29;20054;-79
2022/08/04 05:36:18;;;;;;;3.22;1.60;;;25.40;55.80;;;;;;4939370;29;20031;-83
2022/08/04 05:38:47;;;;;;;1.67;1.40;;;25.50;55.80;;;;;;4956191;29;20031;-79
2022/08/04 05:41:13;;;;;;;1.48;1.38;;;25.40;55.80;;;;;;4939036;29;20035;-82
2022/08/04 05:43:42;;;;;;;3.15;1.42;;;25.40;55.80;;;;;;4923157;29;20043;-80
2022/08/04 05:46:09;;;;;;;2.08;1.40;;;25.40;55.80;;;;;;4923080;29;20031;-79
2022/08/04 05:48:36;;;;;;;2.08;1.23;;;25.40;55.80;;;;;;4938938;29;20024;-79
2022/08/04 05:51:04;;;;;;;2.05;1.42;;;25.40;55.80;;;;;;4939065;29;20043;-79
2022/08/04 05:53:31;;;;;;;1.95;1.30;;;25.40;55.80;;;;;;4923221;29;20032;-79
2022/08/04 05:55:58;;;;;;;1.77;1.23;;;25.40;55.80;;;;;;4955808;29;20468;-82
2022/08/04 05:58:25;;;;;;;3.35;1.50;;;25.40;55.80;;;;;;4938789;29;20038;-80
2022/08/04 06:00:53;;;;;;;1.33;1.23;;;25.40;55.80;;;;;;4938658;29;20392;-80
2022/08/04 06:03:21;;;;;;;2.78;1.50;;;25.40;55.90;;;;;;4939971;29;20064;-81
2022/08/04 06:05:48;;;;;;;1.88;1.50;;;25.40;55.90;;;;;;4922867;29;20463;-79
2022/08/04 06:08:14;;;;;;;1.67;1.33;;;25.40;56.00;;;;;;4923379;29;20065;-80
2022/08/04 06:10:43;;;;;;;1.77;1.25;;;25.40;56.00;;;;;;4938780;29;20058;-79
2022/08/04 06:13:15;;;;;;;2.10;1.35;;;25.50;56.10;;;;;;4955711;29;20039;-79
2022/08/04 06:15:44;;;;;;;1.67;1.42;;;25.50;56.20;;;;;;4940776;29;20019;-79
2022/08/04 06:18:12;;;;;;;1.50;1.40;;;25.50;56.20;;;;;;4942611;29;20039;-80
2022/08/04 06:20:41;;;;;;;1.70;1.52;;;25.50;56.20;;;;;;4939875;29;20055;-81
2022/08/04 06:23:13;;;;;;;2.50;1.50;;;25.50;56.30;;;;;;4955968;29;20027;-80
2022/08/04 06:25:53;;;;;;;2.22;1.33;;;25.50;56.30;;;;;;4955995;29;20082;-82
2022/08/04 06:28:20;;;;;;;1.52;1.38;;;25.50;56.40;;;;;;4955170;29;20045;-83
2022/08/04 06:30:48;;;;;;;3.08;1.70;;;25.50;56.30;;;;;;4922924;29;20024;-85
2022/08/04 06:33:33;;;;;;;2.55;1.42;;;25.50;56.40;;;;;;4906807;29;20032;-81
2022/08/04 06:36:01;;;;;;;1.92;1.40;;;25.50;56.50;;;;;;4939009;29;20038;-79
2022/08/04 06:38:30;;;;;;;1.98;1.63;;;25.60;56.60;;;;;;4937963;29;20023;-81
2022/08/04 06:41:02;;;;;;;3.25;1.63;;;25.60;56.60;;;;;;4955225;29;20044;-79
2022/08/04 06:43:29;;;;;;;3.30;1.67;;;25.60;56.70;;;;;;4923347;29;20115;-79
2022/08/04 06:45:57;;;;;;;2.65;1.70;;;25.60;56.70;;;;;;4922219;29;20428;-80
2022/08/04 06:48:24;;;;;;;2.33;1.63;;;25.60;56.80;;;;;;4955434;28;20039;-84
2022/08/04 06:50:51;;;;;;;2.58;1.50;;;25.70;56.90;;;;;;4959045;29;20035;-84
2022/08/04 06:53:18;;;;;;;2.90;1.60;;;25.70;56.90;;;;;;4926412;29;20046;-86
2022/08/04 06:55:46;;;;;;;2.25;1.58;;;25.70;57.00;;;;;;4959151;29;20031;-79
2022/08/04 06:58:12;;;;;;;3.05;1.67;;;25.70;57.10;;;;;;4942348;29;20043;-79
2022/08/04 07:00:40;;;;;;;2.55;1.67;;;25.70;57.10;;;;;;4942274;29;20447;-81
2022/08/04 07:03:06;;;;;;;2.45;1.60;;;25.80;57.80;;;;;;4959409;29;20034;-79
2022/08/04 07:05:33;;;;;;;2.10;1.63;;;25.80;57.20;;;;;;4942020;29;20031;-79
2022/08/04 07:08:00;;;;;;;2.80;2.00;;;25.80;57.30;;;;;;4942884;29;20039;-83
2022/08/04 07:10:29;;;;;;;2.80;1.65;;;25.80;57.30;;;;;;4958700;29;20114;-82
2022/08/04 07:12:56;;;;;;;3.05;1.63;;;25.90;57.50;;;;;;4941617;29;20476;-80
2022/08/04 07:15:23;;;;;;;3.20;1.80;;;25.90;57.50;;;;;;4926018;29;20033;-80
2022/08/04 07:17:50;;;;;;;2.92;1.70;;;25.90;57.40;;;;;;4941879;29;20027;-87
2022/08/04 07:20:18;;;;;;;4.43;1.70;;;25.90;57.50;;;;;;4958689;29;20098;-81
2022/08/04 07:22:47;;;;;;;3.45;1.83;;;26.00;57.60;;;;;;4942441;29;20497;-79
2022/08/04 07:25:15;;;;;;;3.72;1.85;;;26.00;57.60;;;;;;4942067;29;20034;-80
2022/08/04 07:27:42;;;;;;;2.80;1.63;;;26.10;57.70;;;;;;4958503;29;20023;-80
2022/08/04 07:30:08;;;;;;;2.63;1.63;;;26.10;57.70;;;;;;4958838;29;20035;-80
2022/08/04 07:32:36;;;;;;;1.77;1.42;;;26.10;57.70;;;;;;4958461;29;20027;-83
2022/08/04 07:35:06;;;;;;;3.85;1.95;;;26.10;57.60;;;;;;4925617;29;20027;-81
2022/08/04 07:37:32;;;;;;;2.05;1.40;;;26.20;57.60;;;;;;4941198;29;20027;-80
2022/08/04 07:39:58;;;;;;;2.17;1.40;;;26.20;57.60;;;;;;4958593;29;20039;-80
2022/08/04 07:42:23;;;;;;;3.65;1.40;;;26.20;57.60;;;;;;4925689;29;20053;-81
2022/08/04 07:44:49;;;;;;;2.60;1.60;;;26.30;57.60;;;;;;4958611;29;20380;-80
2022/08/04 07:47:15;;;;;;;3.03;1.48;;;26.30;57.60;;;;;;4959182;29;20468;-86
2022/08/04 07:49:42;;;;;;;2.65;1.60;;;26.40;57.60;;;;;;4958203;29;20028;-81
2022/08/04 07:52:08;;;;;;;2.17;1.55;;;26.40;57.60;;;;;;4958121;29;20031;-80
2022/08/04 07:54:34;;;;;;;2.20;1.33;;;26.40;57.60;;;;;;4940985;29;20028;-80
2022/08/04 07:57:00;;;;;;;1.75;1.40;;;26.40;57.50;;;;;;4925153;29;20027;-83
2022/08/04 07:59:26;;;;;;;2.65;1.30;;;26.50;57.60;;;;;;4924651;29;20035;-80
2022/08/04 08:01:53;;;;;;;1.95;1.60;;;26.60;57.60;;;;;;4941219;29;20044;-84
2022/08/04 08:04:20;;;;;;;2.47;1.50;;;26.60;57.60;;;;;;4942597;29;20023;-83
2022/08/04 08:06:46;;;;;;;2.88;1.60;;;26.70;57.50;;;;;;4941362;29;20457;-81
2022/08/04 08:09:14;;;;;;;2.05;1.42;;;26.70;57.50;;;;;;4926417;29;20035;-81
2022/08/04 08:11:48;;;;;;;2.58;1.67;;;26.80;57.40;;;;;;4940837;29;20103;-80
2022/08/04 08:14:15;;;;;;;3.63;1.70;;;26.80;57.70;;;;;;4940972;29;20047;-80
2022/08/04 08:16:41;;;;;;;2.92;1.83;;;26.90;57.20;;;;;;4940288;29;20043;-80
2022/08/04 08:19:08;;;;;;;2.70;1.60;;;27.00;57.20;;;;;;4940622;29;20396;-79
2022/08/04 08:21:34;;;;;;;2.13;1.65;;;27.00;57.10;;;;;;4940947;29;20431;-82
2022/08/04 08:24:00;;;;;;;3.42;2.00;;;27.10;57.00;;;;;;4940912;29;20067;-82
2022/08/04 08:26:26;;;;;;;3.25;2.20;;;27.10;56.90;;;;;;4957794;29;20042;-84
2022/08/04 08:28:52;;;;;;;2.70;1.90;;;27.20;56.80;;;;;;4942106;29;20035;-85
2022/08/04 08:31:18;;;;;;;4.85;2.20;;;27.20;56.70;;;;;;4940685;29;20035;-84
2022/08/04 08:33:46;;;;;;;2.83;2.15;;;27.40;56.80;;;;;;4925971;29;20035;-84
2022/08/04 08:36:36;;;;;;;3.30;2.25;;;27.40;56.60;;;;;;4958425;29;20082;-84
2022/08/04 08:39:20;;;;;;;3.17;2.10;;;27.50;56.70;;;;;;4935241;29;20031;-84
2022/08/04 08:41:46;;;;;;;3.53;2.13;;;27.60;56.70;;;;;;4966750;29;20090;-84
2022/08/04 08:44:32;;;;;;;3.35;2.10;;;27.60;56.50;;;;;;4942674;29;20279;-83
2022/08/04 08:47:26;;;;;;;2.42;2.00;;;27.70;56.50;;;;;;4957609;29;20038;-85
2022/08/04 08:50:03;;;;;;;3.53;2.20;;;27.80;56.50;;;;;;4940804;29;20130;-87
2022/08/04 08:52:43;;;;;;;3.88;2.53;;;27.90;56.40;;;;;;4958554;29;20046;-88
2022/08/04 08:55:18;;;;;;;3.33;2.05;;;28.00;56.40;;;;;;4941323;29;20035;-86
2022/08/04 08:58:12;;;;;;;2.70;2.00;;;28.10;56.40;;;;;;4941691;29;20047;-86
2022/08/04 09:00:49;;;;;;;2.60;2.00;;;28.10;56.30;;;;;;4924823;29;20019;-88
2022/08/04 09:03:50;;;;;;;3.13;1.92;;;28.20;56.20;;;;;;4957527;29;20102;-85
2022/08/04 09:06:42;;;;;;;3.15;1.92;;;28.30;56.20;;;;;;4939862;29;20051;-83
2022/08/04 09:09:17;;;;;;;2.55;1.83;;;28.40;56.10;;;;;;4957367;29;20046;-84
2022/08/04 09:11:46;;;;;;;;;;;28.50;56.00;;;;;;4957209;28;20035;-85
2022/08/04 09:14:27;;;;;;;4.03;1.98;;;28.60;55.90;;;;;;4939761;29;20427;-86
2022/08/04 09:17:01;;;;;;;2.33;1.70;;;28.70;56.00;;;;;;4925422;29;20039;-86
2022/08/04 09:19:44;;;;;;;2.22;1.92;;;28.80;56.00;;;;;;4940503;29;20031;-85
2022/08/04 09:22:31;;;;;;;2.22;1.60;;;28.90;56.00;;;;;;4924465;29;20043;-87
2022/08/04 09:25:12;;;;;;;2.72;1.90;;;29.00;56.00;;;;;;4924869;29;20446;-83
2022/08/04 09:27:54;;;;;;;2.15;1.58;;;29.00;55.90;;;;;;4940203;29;20035;-85
2022/08/04 09:30:39;;;;;;;2.17;1.67;;;29.20;55.80;;;;;;4923741;29;20095;-79
2022/08/04 09:33:29;;;;;;;2.95;1.80;;;29.30;55.90;;;;;;4939578;29;20476;-84
2022/08/04 09:36:06;;;;;;;2.22;1.80;;;29.40;55.80;;;;;;4956656;29;20031;-84
2022/08/04 09:38:45;;;;;;;2.67;1.63;;;29.40;55.70;;;;;;4957073;29;20035;-83
2022/08/04 09:41:42;;;;;;;2.63;1.80;;;29.50;55.70;;;;;;4939789;29;20046;-82
2022/08/04 09:44:16;;;;;;;3.65;2.00;;;29.60;55.60;;;;;;4939808;29;20039;-84
2022/08/04 09:46:54;;;;;;;2.47;1.88;;;29.70;55.60;;;;;;4956386;29;20468;-83
2022/08/04 09:49:34;;;;;;;3.97;1.67;;;29.80;55.60;;;;;;4938995;29;20114;-82
2022/08/04 09:52:15;;;;;;;2.78;1.85;;;29.80;55.50;;;;;;4939198;29;20082;-85
2022/08/04 09:54:52;;;;;;;2.55;1.65;;;29.90;55.50;;;;;;4939035;29;20047;-81
2022/08/04 09:57:30;;;;;;;1.60;1.50;;;30.00;55.50;;;;;;4956074;29;20031;-81
2022/08/04 10:00:05;;;;;;;2.60;1.83;;;30.00;55.40;;;;;;4955677;29;20028;-81
2022/08/04 10:02:41;;;;;;;2.17;1.48;;;30.10;55.40;;;;;;4939468;29;20085;-81
2022/08/04 10:05:12;;;;;;;2.17;1.70;;;30.20;55.30;;;;;;4956269;29;20412;-83
2022/08/04 10:08:12;;;;;;;2.78;1.63;;;30.30;55.40;;;;;;4956254;29;20408;-82
2022/08/04 10:10:56;;;;;;;1.92;1.55;;;30.30;55.30;;;;;;4956146;29;20126;-81
2022/08/04 10:14:01;;;;;;;1.95;1.60;;;30.40;55.20;;;;;;4938595;29;20117;-82
2022/08/04 10:16:43;;;;;;;2.25;1.45;;;30.40;55.20;;;;;;4922821;29;20118;-81
2022/08/04 10:19:09;;;;;;;2.58;1.40;;;30.50;55.10;;;;;;4938641;29;20094;-80
2022/08/04 10:21:54;;;;;;;2.97;1.80;;;30.60;55.20;;;;;;4955693;29;20035;-80
2022/08/04 10:24:47;;;;;;;2.10;1.38;;;30.60;55.10;;;;;;4956097;29;20098;-80
2022/08/04 10:27:29;;;;;;;2.35;1.40;;;30.70;55.10;;;;;;4938257;29;20031;-81
2022/08/04 10:30:02;;;;;;;2.42;1.40;;;30.70;55.00;;;;;;4938790;29;20038;-80
2022/08/04 10:32:39;;;;;;;3.30;1.50;;;30.70;54.80;;;;;;4955055;29;20059;-81
2022/08/04 10:35:12;;;;;;;1.63;1.25;;;30.70;54.80;;;;;;4938668;29;20063;-80
2022/08/04 10:37:41;;;;;;;1.90;1.42;;;30.80;54.80;;;;;;4938209;29;20049;-81
2022/08/04 10:40:35;;;;;;;1.77;1.52;;;30.90;54.70;;;;;;4938523;29;20023;-80
2022/08/04 10:43:07;;;;;;;1.48;1.17;;;30.90;54.70;;;;;;4937893;29;20039;-80
2022/08/04 10:45:43;;;;;;;2.13;1.10;;;30.90;54.60;;;;;;4922082;29;20031;-81
2022/08/04 10:48:21;;;;;;;2.28;1.50;;;30.90;54.60;;;;;;4938048;29;20174;-80
2022/08/04 10:51:14;;;;;;;2.20;1.27;;;30.90;54.60;;;;;;4955045;29;20067;-85
2022/08/04 10:53:42;;;;;;;1.70;1.17;;;30.90;54.60;;;;;;4919626;29;20043;-80
2022/08/04 10:56:33;;;;;;;2.38;1.27;;;31.00;54.50;;;;;;4938966;29;20039;-83
2022/08/04 10:59:06;;;;;;;2.63;1.35;;;31.00;54.60;;;;;;4931127;29;20050;-82
2022/08/04 11:01:41;;;;;;;1.45;1.10;;;31.00;54.50;;;;;;4940383;29;20050;-82
2022/08/04 11:04:25;;;;;;;2.00;1.25;;;31.00;54.50;;;;;;4957504;29;20051;-82
2022/08/04 11:06:52;;;;;;;2.60;1.50;;;31.00;54.50;;;;;;4939117;29;20111;-82
2022/08/04 11:09:19;;;;;;;2.33;1.40;;;31.00;54.40;;;;;;4938739;29;20045;-81
2022/08/04 11:12:01;;;;;;;1.33;1.10;;;31.00;54.50;;;;;;4955447;29;20114;-86
2022/08/04 11:14:36;;;;;;;2.78;1.50;;;30.90;54.50;;;;;;4922237;29;20499;-81
2022/08/04 11:17:19;;;;;;;1.45;1.20;;;30.90;54.50;;;;;;4938014;29;20178;-83
2022/08/04 11:20:01;;;;;;;2.67;1.23;;;30.90;54.70;;;;;;4937563;29;20035;-85
2022/08/04 11:22:28;;;;;;;1.80;1.20;;;30.90;54.80;;;;;;4921852;29;20038;-85
2022/08/04 11:25:05;;;;;;;1.83;1.20;;;30.90;54.80;;;;;;4955115;29;20110;-82
2022/08/04 11:28:21;;;;;;;3.42;1.23;;;30.80;54.90;;;;;;4938432;29;20038;-84
2022/08/04 11:31:01;;;;;;;2.15;1.10;;;30.80;55.10;;;;;;4905644;29;20043;-87
2022/08/04 11:33:45;;;;;;;2.38;1.25;;;30.80;55.20;;;;;;4954720;29;20030;-82
2022/08/04 11:36:35;;;;;;;3.13;1.25;;;30.70;55.30;;;;;;4925011;29;20052;-82
2022/08/04 11:39:18;;;;;;;1.73;1.10;;;30.70;55.40;;;;;;4958904;29;20108;-79
2022/08/04 11:41:52;;;;;;;2.10;1.40;;;30.70;55.50;;;;;;4926213;29;20488;-84
2022/08/04 11:44:56;;;;;;;2.80;1.38;;;30.60;55.60;;;;;;4958470;29;20063;-83
2022/08/04 11:47:38;;;;;;;1.77;1.20;;;30.60;55.80;;;;;;4913790;29;20039;-80
2022/08/04 11:50:13;;;;;;;2.13;1.20;;;30.60;55.80;;;;;;4958786;29;20463;-81
2022/08/04 11:52:43;;;;;;;2.08;1.20;;;30.50;55.90;;;;;;4958079;29;20038;-81
2022/08/04 11:55:12;;;;;;;1.95;1.30;;;30.50;56.00;;;;;;4925475;29;20412;-81
2022/08/04 11:57:39;;;;;;;1.48;1.20;;;30.50;56.10;;;;;;4925118;29;20464;-82
2022/08/04 12:00:11;;;;;;;2.47;1.10;;;30.40;56.10;;;;;;4941204;29;20035;-84
2022/08/04 12:03:11;;;;;;;1.58;1.08;;;30.40;56.30;;;;;;4940940;29;20035;-81
2022/08/04 12:05:59;;;;;;;2.78;1.40;;;30.40;56.30;;;;;;4958328;29;20031;-80
2022/08/04 12:08:37;;;;;;;2.42;1.40;;;30.30;56.30;;;;;;4925376;29;20078;-81
2022/08/04 12:11:37;;;;;;;1.90;1.10;;;30.30;56.20;;;;;;4940869;29;20062;-81
2022/08/04 12:14:49;;;;;;;2.45;1.30;;;30.30;56.40;;;;;;4940408;29;20082;-81
2022/08/04 12:17:24;;;;;;;1.23;1.10;;;30.30;56.40;;;;;;4901598;29;20104;-86
2022/08/04 12:19:53;;;;;;;2.00;1.35;;;30.20;56.50;;;;;;4951906;29;20043;-83
2022/08/04 12:22:25;;;;;;;3.25;1.40;;;30.20;56.50;;;;;;4940266;29;20094;-82
2022/08/04 12:25:05;;;;;;;2.03;1.13;;;30.20;56.60;;;;;;4924449;29;20479;-81
2022/08/04 12:27:36;;;;;;;1.10;1.02;;;30.10;56.60;;;;;;4957913;29;20490;-80
2022/08/04 12:30:04;;;;;;;2.17;1.20;;;30.10;56.60;;;;;;4958149;29;20027;-81
2022/08/04 12:32:58;;;;;;;1.83;1.45;;;30.10;56.60;;;;;;4940712;29;20149;-81
2022/08/04 12:35:32;;;;;;;2.30;1.27;;;30.10;56.70;;;;;;4940525;29;20058;-83
2022/08/04 12:38:07;;;;;;;1.90;1.30;;;30.10;56.60;;;;;;4940054;29;20046;-81
2022/08/04 12:40:50;;;;;;;1.00;0.82;;;30.10;56.70;;;;;;4940248;29;20027;-81
2022/08/04 12:43:37;;;;;;;1.63;1.25;;;30.00;56.70;;;;;;4940017;29;20040;-80
2022/08/04 12:46:09;;;;;;;2.60;1.50;;;30.00;56.60;;;;;;4957251;28;20031;-80
2022/08/04 12:48:37;;;;;;;2.55;1.27;;;30.00;56.40;;;;;;4957027;29;20031;-80
2022/08/04 12:51:10;;;;;;;1.65;1.08;;;30.00;56.50;;;;;;4924267;29;20027;-82
2022/08/04 12:53:41;;;;;;;1.90;1.00;;;30.00;56.40;;;;;;4940362;29;20412;-81
2022/08/04 12:56:10;;;;;;;2.63;1.20;;;30.00;56.50;;;;;;4923929;29;20032;-81
2022/08/04 12:58:40;;;;;;;1.67;1.10;;;30.00;56.50;;;;;;4957088;29;20031;-80
2022/08/04 13:01:09;;;;;;;1.67;1.15;;;30.00;56.50;;;;;;4939747;29;20122;-81
2022/08/04 13:03:41;;;;;;;1.70;1.10;;;29.90;56.40;;;;;;4956718;29;20035;-82
2022/08/04 13:06:12;;;;;;;1.25;0.88;;;29.90;56.50;;;;;;4923882;29;20032;-81
2022/08/04 13:08:41;;;;;;;2.10;1.00;;;29.90;56.40;;;;;;4940080;29;20035;-81
2022/08/04 13:11:11;;;;;;;2.00;1.10;;;29.90;56.40;;;;;;4939413;29;20055;-81
2022/08/04 13:13:38;;;;;;;1.60;1.00;;;29.90;56.50;;;;;;4957180;28;20043;-80
2022/08/04 13:16:09;;;;;;;1.73;1.13;;;29.90;56.50;;;;;;4956909;29;20536;-84
2022/08/04 13:18:46;;;;;;;3.58;1.27;;;29.90;56.50;;;;;;4938871;29;20035;-81
2022/08/04 13:21:23;;;;;;;2.13;1.17;;;29.90;56.50;;;;;;4939577;29;20043;-81
2022/08/04 13:23:54;;;;;;;1.33;1.10;;;29.90;56.50;;;;;;4956250;29;20027;-81
2022/08/04 13:26:21;;;;;;;3.30;1.15;;;29.90;56.50;;;;;;4939576;29;20410;-83
2022/08/04 13:28:48;;;;;;;1.92;1.10;;;29.90;56.50;;;;;;4939114;29;20058;-83
2022/08/04 13:31:20;;;;;;;2.97;1.38;;;29.90;56.60;;;;;;4907470;29;20036;-81
2022/08/04 13:33:49;;;;;;;2.03;0.95;;;29.90;56.50;;;;;;4955952;29;20028;-84
2022/08/04 13:36:16;;;;;;;0.98;0.90;;;29.90;56.50;;;;;;4938659;29;20031;-82